Strona główna
METAR-TAF:

METAR-TAF

Lotnisko :

Porto Alegre, Rio Grande do Sul, Brazylia

Szerokość geograficzna: 30-01S, Długość geograficzna: 051-13W, wysokość: 47 m

Aktualna obserwacja pogody

Raport powstał 41 minut temu, godzina 19:00 UTC
Wiatr 5 kt od zachód
Temperatura 24°C
Wilgotność 47%
Ciśnienie 1014 hPa
Widzialność 10 km lub więcej
Brak chmur poniżej 1500 m i brak chmur cumulonimbus

METAR: SBCO 301900Z 27005KT CAVOK 24/12 Q1014

czas: 16:41 (19:41 UTC)

Prognoza

Raport powstał 4 godziny i 41 minut temu, godzina 15:00 UTC
Prognoza ważna od 30 godzina 18 UTC do 31 godzina 06 UTC
Wiatr 5 kt od północ
Widzialność 10 km lub więcej
Brak chmur poniżej 1500 m i brak chmur cumulonimbus

TAF: SBCO 301500Z 3018/3106 01005KT CAVOK TX22/3018Z TN10/3106Z RMK PDG

Obserwacja i prognoza pogody dla ponad 4000 lotnisk (raport METAR i TAF).

Dostępne stacje oznaczono żółtymi i czerwonymi punktami na mapie.

Najedź kursorem aby zobaczyć nazwę stacji.

Kliknij aby zobaczyć obserwacje i prognozy pogody.

Aby zmienić mapę: kliknij na zielony przycisk z czarnym krzyżykiem, aby powiększyć; na zielony przycisk z myślnikiem, aby pomniejszyć; na zielone strzałki, aby przejść do map sąsiednich.


METAR-TAF: